sensor_id;sensor_type;location;lat;lon;timestamp;pressure;altitude;pressure_sealevel;temperature
60936;BMP280;46804;51.786;19.520;2023-02-15T00:01:44;155242.72;;;4.28
60936;BMP280;46804;51.786;19.520;2023-02-15T00:05:44;155288.69;;;4.45
60936;BMP280;46804;51.786;19.520;2023-02-15T00:09:46;155279.78;;;4.42
60936;BMP280;46804;51.786;19.520;2023-02-15T00:13:47;155282.31;;;4.43
60936;BMP280;46804;51.786;19.520;2023-02-15T00:17:47;155256.78;;;4.33
60936;BMP280;46804;51.786;19.520;2023-02-15T00:21:48;155261.91;;;4.35
60936;BMP280;46804;51.786;19.520;2023-02-15T00:25:49;155272.06;;;4.39
60936;BMP280;46804;51.786;19.520;2023-02-15T00:29:50;155273.41;;;4.39
60936;BMP280;46804;51.786;19.520;2023-02-15T00:33:51;155284.88;;;4.44
60936;BMP280;46804;51.786;19.520;2023-02-15T00:37:51;155242.72;;;4.28
60936;BMP280;46804;51.786;19.520;2023-02-15T00:41:52;155249.09;;;4.30
60936;BMP280;46804;51.786;19.520;2023-02-15T00:45:53;155263.16;;;4.36
60936;BMP280;46804;51.786;19.520;2023-02-15T00:49:54;155265.69;;;4.37
60936;BMP280;46804;51.786;19.520;2023-02-15T00:53:55;155255.47;;;4.33
60936;BMP280;46804;51.786;19.520;2023-02-15T00:57:55;155261.91;;;4.35
60936;BMP280;46804;51.786;19.520;2023-02-15T01:01:56;155272.06;;;4.39
60936;BMP280;46804;51.786;19.520;2023-02-15T01:05:57;155270.81;;;4.38
60936;BMP280;46804;51.786;19.520;2023-02-15T01:09:57;155252.94;;;4.32
60936;BMP280;46804;51.786;19.520;2023-02-15T01:13:58;155218.47;;;4.18
60936;BMP280;46804;51.786;19.520;2023-02-15T01:17:59;155215.88;;;4.17
60936;BMP280;46804;51.786;19.520;2023-02-15T01:22:00;155242.72;;;4.28
60936;BMP280;46804;51.786;19.520;2023-02-15T01:26:03;155250.41;;;4.31
60936;BMP280;46804;51.786;19.520;2023-02-15T01:30:04;155274.66;;;4.40
60936;BMP280;46804;51.786;19.520;2023-02-15T01:34:05;155218.47;;;4.18
60936;BMP280;46804;51.786;19.520;2023-02-15T01:38:05;155240.19;;;4.27
60936;BMP280;46804;51.786;19.520;2023-02-15T01:42:10;155261.91;;;4.35
60936;BMP280;46804;51.786;19.520;2023-02-15T01:46:12;155232.50;;;4.24
60936;BMP280;46804;51.786;19.520;2023-02-15T01:50:25;155226.13;;;4.21
60936;BMP280;46804;51.786;19.520;2023-02-15T01:54:31;155237.59;;;4.26
60936;BMP280;46804;51.786;19.520;2023-02-15T01:58:34;155249.09;;;4.30
60936;BMP280;46804;51.786;19.520;2023-02-15T02:02:35;155226.13;;;4.21
60936;BMP280;46804;51.786;19.520;2023-02-15T02:06:37;155243.97;;;4.28
60936;BMP280;46804;51.786;19.520;2023-02-15T02:10:38;155206.97;;;4.14
60936;BMP280;46804;51.786;19.520;2023-02-15T02:14:40;155231.22;;;4.23
60936;BMP280;46804;51.786;19.520;2023-02-15T02:23:08;155250.41;;;4.31
60936;BMP280;46804;51.786;19.520;2023-02-15T02:27:33;155226.13;;;4.21
60936;BMP280;46804;51.786;19.520;2023-02-15T02:32:10;155213.34;;;4.16
60936;BMP280;46804;51.786;19.520;2023-02-15T02:36:29;155238.88;;;4.26
60936;BMP280;46804;51.786;19.520;2023-02-15T02:44:59;155200.59;;;4.11
60936;BMP280;46804;51.786;19.520;2023-02-15T02:49:01;155200.59;;;4.11
60936;BMP280;46804;51.786;19.520;2023-02-15T02:53:02;155173.78;;;4.01
60936;BMP280;46804;51.786;19.520;2023-02-15T02:57:06;155172.50;;;4.01
60936;BMP280;46804;51.786;19.520;2023-02-15T03:01:22;155184.00;;;4.05
60936;BMP280;46804;51.786;19.520;2023-02-15T03:05:23;155178.88;;;4.03
60936;BMP280;46804;51.786;19.520;2023-02-15T03:09:37;155214.63;;;4.17
60936;BMP280;46804;51.786;19.520;2023-02-15T03:13:47;155191.66;;;4.08
60936;BMP280;46804;51.786;19.520;2023-02-15T03:17:54;155192.91;;;4.08
60936;BMP280;46804;51.786;19.520;2023-02-15T03:22:00;155205.72;;;4.13
60936;BMP280;46804;51.786;19.520;2023-02-15T03:26:09;155192.91;;;4.08
60936;BMP280;46804;51.786;19.520;2023-02-15T03:30:12;155205.72;;;4.13
60936;BMP280;46804;51.786;19.520;2023-02-15T03:34:14;155215.88;;;4.17
60936;BMP280;46804;51.786;19.520;2023-02-15T03:38:20;155206.97;;;4.14
60936;BMP280;46804;51.786;19.520;2023-02-15T03:42:29;155194.22;;;4.09
60936;BMP280;46804;51.786;19.520;2023-02-15T03:47:15;155192.91;;;4.08
60936;BMP280;46804;51.786;19.520;2023-02-15T03:51:00;155194.22;;;4.09
60936;BMP280;46804;51.786;19.520;2023-02-15T03:55:20;155231.22;;;4.23
60936;BMP280;46804;51.786;19.520;2023-02-15T03:59:21;155252.94;;;4.32
60936;BMP280;46804;51.786;19.520;2023-02-15T04:36:07;155206.97;;;4.14
60936;BMP280;46804;51.786;19.520;2023-02-15T04:40:11;155215.88;;;4.17
60936;BMP280;46804;51.786;19.520;2023-02-15T04:44:11;155213.34;;;4.16
60936;BMP280;46804;51.786;19.520;2023-02-15T04:48:12;155158.44;;;3.95
60936;BMP280;46804;51.786;19.520;2023-02-15T04:52:13;155166.13;;;3.98
60936;BMP280;46804;51.786;19.520;2023-02-15T04:56:14;155167.41;;;3.99
60936;BMP280;46804;51.786;19.520;2023-02-15T05:00:15;155158.44;;;3.95
60936;BMP280;46804;51.786;19.520;2023-02-15T05:04:15;155155.91;;;3.94
60936;BMP280;46804;51.786;19.520;2023-02-15T05:08:16;155200.59;;;4.11
60936;BMP280;46804;51.786;19.520;2023-02-15T05:16:26;155210.78;;;4.15
60936;BMP280;46804;51.786;19.520;2023-02-15T05:20:28;155223.59;;;4.20
60936;BMP280;46804;51.786;19.520;2023-02-15T05:24:28;155208.25;;;4.14
60936;BMP280;46804;51.786;19.520;2023-02-15T05:28:47;155172.50;;;4.01
60936;BMP280;46804;51.786;19.520;2023-02-15T05:32:48;155108.66;;;3.76
60936;BMP280;46804;51.786;19.520;2023-02-15T05:36:49;155111.22;;;3.77
60936;BMP280;46804;51.786;19.520;2023-02-15T05:40:53;155112.50;;;3.77
60936;BMP280;46804;51.786;19.520;2023-02-15T05:44:53;155070.41;;;3.61
60936;BMP280;46804;51.786;19.520;2023-02-15T05:48:54;155085.69;;;3.67
60936;BMP280;46804;51.786;19.520;2023-02-15T05:52:55;155108.66;;;3.76
60936;BMP280;46804;51.786;19.520;2023-02-15T05:56:56;155104.84;;;3.74
60936;BMP280;46804;51.786;19.520;2023-02-15T06:00:56;155097.16;;;3.71
60936;BMP280;46804;51.786;19.520;2023-02-15T06:04:57;155121.44;;;3.81
60936;BMP280;46804;51.786;19.520;2023-02-15T06:08:58;155052.50;;;3.54
60936;BMP280;46804;51.786;19.520;2023-02-15T06:12:59;155069.09;;;3.61
60936;BMP280;46804;51.786;19.520;2023-02-15T06:17:00;155075.47;;;3.63
60936;BMP280;46804;51.786;19.520;2023-02-15T06:21:00;155038.47;;;3.49
60936;BMP280;46804;51.786;19.520;2023-02-15T06:25:01;155034.63;;;3.47
60936;BMP280;46804;51.786;19.520;2023-02-15T06:29:02;155010.41;;;3.38
60936;BMP280;46804;51.786;19.520;2023-02-15T06:33:03;154998.91;;;3.34
60936;BMP280;46804;51.786;19.520;2023-02-15T06:37:04;155049.97;;;3.53
60936;BMP280;46804;51.786;19.520;2023-02-15T06:41:04;155029.53;;;3.45
60936;BMP280;46804;51.786;19.520;2023-02-15T06:45:05;155035.91;;;3.48
60936;BMP280;46804;51.786;19.520;2023-02-15T06:49:06;155038.47;;;3.49
60936;BMP280;46804;51.786;19.520;2023-02-15T06:53:07;155058.91;;;3.57
60936;BMP280;46804;51.786;19.520;2023-02-15T06:57:08;155052.50;;;3.54
60936;BMP280;46804;51.786;19.520;2023-02-15T07:01:09;155071.66;;;3.62
60936;BMP280;46804;51.786;19.520;2023-02-15T07:05:10;155029.53;;;3.45
60936;BMP280;46804;51.786;19.520;2023-02-15T07:09:11;155021.88;;;3.42
60936;BMP280;46804;51.786;19.520;2023-02-15T07:13:13;155009.13;;;3.38
60936;BMP280;46804;51.786;19.520;2023-02-15T07:17:13;154987.44;;;3.29
60936;BMP280;46804;51.786;19.520;2023-02-15T07:21:14;155004.03;;;3.36
60936;BMP280;46804;51.786;19.520;2023-02-15T07:25:15;154979.75;;;3.26
60936;BMP280;46804;51.786;19.520;2023-02-15T07:29:16;154991.28;;;3.31
60936;BMP280;46804;51.786;19.520;2023-02-15T07:33:17;155025.72;;;3.44
60936;BMP280;46804;51.786;19.520;2023-02-15T07:37:24;155011.66;;;3.38
60936;BMP280;46804;51.786;19.520;2023-02-15T07:41:25;154958.09;;;3.18
60936;BMP280;46804;51.786;19.520;2023-02-15T07:45:26;154973.38;;;3.24
60936;BMP280;46804;51.786;19.520;2023-02-15T07:49:27;154956.78;;;3.17
60936;BMP280;46804;51.786;19.520;2023-02-15T07:53:28;154981.06;;;3.27
60936;BMP280;46804;51.786;19.520;2023-02-15T07:57:29;154963.22;;;3.20
60936;BMP280;46804;51.786;19.520;2023-02-15T08:01:36;154945.31;;;3.13
60936;BMP280;46804;51.786;19.520;2023-02-15T08:05:37;154942.78;;;3.12
60936;BMP280;46804;51.786;19.520;2023-02-15T08:09:38;154912.13;;;3.00
60936;BMP280;46804;51.786;19.520;2023-02-15T08:13:39;154930.03;;;3.07
60936;BMP280;46804;51.786;19.520;2023-02-15T08:17:53;154946.63;;;3.13
60936;BMP280;46804;51.786;19.520;2023-02-15T08:22:02;154927.44;;;3.06
60936;BMP280;46804;51.786;19.520;2023-02-15T08:26:04;154922.34;;;3.04
60936;BMP280;46804;51.786;19.520;2023-02-15T08:30:05;154905.75;;;2.98
60936;BMP280;46804;51.786;19.520;2023-02-15T08:34:08;154936.41;;;3.09
60936;BMP280;46804;51.786;19.520;2023-02-15T08:38:09;154941.50;;;3.11
60936;BMP280;46804;51.786;19.520;2023-02-15T08:42:10;154949.16;;;3.14
60936;BMP280;46804;51.786;19.520;2023-02-15T08:46:11;154992.53;;;3.31
60936;BMP280;46804;51.786;19.520;2023-02-15T08:50:12;155000.19;;;3.34
60936;BMP280;46804;51.786;19.520;2023-02-15T08:54:15;154969.56;;;3.22
60936;BMP280;46804;51.786;19.520;2023-02-15T08:58:17;154995.06;;;3.32
60936;BMP280;46804;51.786;19.520;2023-02-15T09:02:17;154996.34;;;3.33
60936;BMP280;46804;51.786;19.520;2023-02-15T09:06:18;154945.31;;;3.13
60936;BMP280;46804;51.786;19.520;2023-02-15T09:10:19;154913.44;;;3.01
60936;BMP280;46804;51.786;19.520;2023-02-15T09:14:20;154935.13;;;3.09
60936;BMP280;46804;51.786;19.520;2023-02-15T09:18:22;154977.22;;;3.25
60936;BMP280;46804;51.786;19.520;2023-02-15T09:22:23;154982.31;;;3.27
60936;BMP280;46804;51.786;19.520;2023-02-15T09:26:25;154986.16;;;3.29
60936;BMP280;46804;51.786;19.520;2023-02-15T09:30:26;155029.53;;;3.45
60936;BMP280;46804;51.786;19.520;2023-02-15T09:34:27;155038.47;;;3.49
60936;BMP280;46804;51.786;19.520;2023-02-15T09:38:27;155024.41;;;3.43
60936;BMP280;46804;51.786;19.520;2023-02-15T09:42:39;155019.34;;;3.41
60936;BMP280;46804;51.786;19.520;2023-02-15T09:55:35;154942.78;;;3.12
60936;BMP280;46804;51.786;19.520;2023-02-15T10:00:16;154930.03;;;3.07
60936;BMP280;46804;51.786;19.520;2023-02-15T10:09:13;154942.78;;;3.12
60936;BMP280;46804;51.786;19.520;2023-02-15T10:13:29;154933.81;;;3.08
60936;BMP280;46804;51.786;19.520;2023-02-15T10:17:57;154951.72;;;3.15
60936;BMP280;46804;51.786;19.520;2023-02-15T10:22:29;154913.44;;;3.01
60936;BMP280;46804;51.786;19.520;2023-02-15T10:26:43;154915.97;;;3.02
60936;BMP280;46804;51.786;19.520;2023-02-15T10:30:49;154949.16;;;3.14
60936;BMP280;46804;51.786;19.520;2023-02-15T10:35:31;154936.41;;;3.09
60936;BMP280;46804;51.786;19.520;2023-02-15T10:44:17;154907.06;;;2.98
60936;BMP280;46804;51.786;19.520;2023-02-15T10:57:11;154933.81;;;3.08
60936;BMP280;46804;51.786;19.520;2023-02-15T11:05:57;154969.56;;;3.22
60936;BMP280;46804;51.786;19.520;2023-02-15T11:14:16;154901.97;;;2.96
60936;BMP280;46804;51.786;19.520;2023-02-15T11:22:33;154945.31;;;3.13
60936;BMP280;46804;51.786;19.520;2023-02-15T11:26:38;154938.94;;;3.10
60936;BMP280;46804;51.786;19.520;2023-02-15T11:30:45;154996.34;;;3.33
60936;BMP280;46804;51.786;19.520;2023-02-15T11:35:10;154975.94;;;3.25
60936;BMP280;46804;51.786;19.520;2023-02-15T11:39:18;154913.44;;;3.01
60936;BMP280;46804;51.786;19.520;2023-02-15T11:43:28;154901.97;;;2.96
60936;BMP280;46804;51.786;19.520;2023-02-15T11:47:30;154924.91;;;3.05
60936;BMP280;46804;51.786;19.520;2023-02-15T11:51:31;154912.13;;;3.00
60936;BMP280;46804;51.786;19.520;2023-02-15T11:55:31;154866.22;;;2.82
60936;BMP280;46804;51.786;19.520;2023-02-15T11:59:36;154891.75;;;2.92
60936;BMP280;46804;51.786;19.520;2023-02-15T12:03:49;154912.13;;;3.00
60936;BMP280;46804;51.786;19.520;2023-02-15T12:07:55;154919.81;;;3.03
60936;BMP280;46804;51.786;19.520;2023-02-15T12:16:29;154946.63;;;3.13
60936;BMP280;46804;51.786;19.520;2023-02-15T12:20:33;154922.34;;;3.04
60936;BMP280;46804;51.786;19.520;2023-02-15T12:24:44;154899.38;;;2.95
60936;BMP280;46804;51.786;19.520;2023-02-15T12:28:49;154880.28;;;2.88
60936;BMP280;46804;51.786;19.520;2023-02-15T12:32:54;154879.00;;;2.87
60936;BMP280;46804;51.786;19.520;2023-02-15T12:36:59;154856.06;;;2.78
60936;BMP280;46804;51.786;19.520;2023-02-15T12:41:03;154910.88;;;3.00
60936;BMP280;46804;51.786;19.520;2023-02-15T12:45:27;154932.56;;;3.08
60936;BMP280;46804;51.786;19.520;2023-02-15T12:49:38;154914.72;;;3.01
60936;BMP280;46804;51.786;19.520;2023-02-15T12:53:38;154928.72;;;3.06
60936;BMP280;46804;51.786;19.520;2023-02-15T12:57:39;154984.84;;;3.28
60936;BMP280;46804;51.786;19.520;2023-02-15T13:01:41;154923.66;;;3.04
60936;BMP280;46804;51.786;19.520;2023-02-15T13:05:44;154923.66;;;3.04
60936;BMP280;46804;51.786;19.520;2023-02-15T13:09:47;154898.13;;;2.95
60936;BMP280;46804;51.786;19.520;2023-02-15T13:13:53;154896.84;;;2.94
60936;BMP280;46804;51.786;19.520;2023-02-15T13:17:57;154910.88;;;3.00
60936;BMP280;46804;51.786;19.520;2023-02-15T13:22:02;154953.00;;;3.16
60936;BMP280;46804;51.786;19.520;2023-02-15T13:26:11;154981.06;;;3.27
60936;BMP280;46804;51.786;19.520;2023-02-15T13:30:27;155009.13;;;3.38
60936;BMP280;46804;51.786;19.520;2023-02-15T13:34:34;155024.41;;;3.43
60936;BMP280;46804;51.786;19.520;2023-02-15T13:38:50;154991.28;;;3.31
60936;BMP280;46804;51.786;19.520;2023-02-15T13:42:55;155006.56;;;3.37
60936;BMP280;46804;51.786;19.520;2023-02-15T13:47:11;155025.72;;;3.44
60936;BMP280;46804;51.786;19.520;2023-02-15T13:51:25;154986.16;;;3.29
60936;BMP280;46804;51.786;19.520;2023-02-15T13:55:33;155016.78;;;3.40
60936;BMP280;46804;51.786;19.520;2023-02-15T14:13:51;154926.19;;;3.05
60936;BMP280;46804;51.786;19.520;2023-02-15T14:17:43;154912.13;;;3.00
60936;BMP280;46804;51.786;19.520;2023-02-15T14:22:18;154912.13;;;3.00
60936;BMP280;46804;51.786;19.520;2023-02-15T14:30:36;154915.97;;;3.02
60936;BMP280;46804;51.786;19.520;2023-02-15T14:34:42;154935.13;;;3.09
60936;BMP280;46804;51.786;19.520;2023-02-15T14:48:11;154936.41;;;3.09
60936;BMP280;46804;51.786;19.520;2023-02-15T14:52:13;154919.81;;;3.03
60936;BMP280;46804;51.786;19.520;2023-02-15T14:56:20;154908.34;;;2.99
60936;BMP280;46804;51.786;19.520;2023-02-15T15:00:31;154880.28;;;2.88
60936;BMP280;46804;51.786;19.520;2023-02-15T15:04:41;154933.81;;;3.08
60936;BMP280;46804;51.786;19.520;2023-02-15T15:08:42;154922.34;;;3.04
60936;BMP280;46804;51.786;19.520;2023-02-15T15:12:45;154886.66;;;2.90
60936;BMP280;46804;51.786;19.520;2023-02-15T15:16:48;154885.38;;;2.90
60936;BMP280;46804;51.786;19.520;2023-02-15T15:20:50;154884.06;;;2.89
60936;BMP280;46804;51.786;19.520;2023-02-15T15:24:59;154893.00;;;2.93
60936;BMP280;46804;51.786;19.520;2023-02-15T15:29:01;154873.91;;;2.85
60936;BMP280;46804;51.786;19.520;2023-02-15T15:33:24;154877.69;;;2.87
60936;BMP280;46804;51.786;19.520;2023-02-15T15:37:46;154875.16;;;2.86
60936;BMP280;46804;51.786;19.520;2023-02-15T15:42:07;154858.59;;;2.79
60936;BMP280;46804;51.786;19.520;2023-02-15T15:46:37;154842.00;;;2.73
60936;BMP280;46804;51.786;19.520;2023-02-15T15:50:42;154838.16;;;2.71
60936;BMP280;46804;51.786;19.520;2023-02-15T15:54:46;154812.69;;;2.62
60936;BMP280;46804;51.786;19.520;2023-02-15T15:58:54;154778.25;;;2.48
60936;BMP280;46804;51.786;19.520;2023-02-15T16:02:56;154785.88;;;2.51
60936;BMP280;46804;51.786;19.520;2023-02-15T16:07:01;154774.41;;;2.47
60936;BMP280;46804;51.786;19.520;2023-02-15T16:11:16;154773.16;;;2.46
60936;BMP280;46804;51.786;19.520;2023-02-15T16:15:22;154766.78;;;2.44
60936;BMP280;46804;51.786;19.520;2023-02-15T16:19:30;154740.00;;;2.34
60936;BMP280;46804;51.786;19.520;2023-02-15T16:23:55;154729.78;;;2.30
60936;BMP280;46804;51.786;19.520;2023-02-15T16:28:06;154710.69;;;2.22
60936;BMP280;46804;51.786;19.520;2023-02-15T16:32:27;154695.38;;;2.16
60936;BMP280;46804;51.786;19.520;2023-02-15T16:36:28;154674.94;;;2.08
60936;BMP280;46804;51.786;19.520;2023-02-15T16:44:39;154650.75;;;1.99
60936;BMP280;46804;51.786;19.520;2023-02-15T16:48:43;154634.19;;;1.93
60936;BMP280;46804;51.786;19.520;2023-02-15T16:52:46;154598.50;;;1.79
60936;BMP280;46804;51.786;19.520;2023-02-15T16:56:47;154580.69;;;1.72
60936;BMP280;46804;51.786;19.520;2023-02-15T17:00:48;154581.94;;;1.72
60936;BMP280;46804;51.786;19.520;2023-02-15T17:05:16;154562.78;;;1.65
60936;BMP280;46804;51.786;19.520;2023-02-15T17:09:19;154562.78;;;1.65
60936;BMP280;46804;51.786;19.520;2023-02-15T17:13:22;154552.66;;;1.61
60936;BMP280;46804;51.786;19.520;2023-02-15T17:17:23;154543.69;;;1.58
60936;BMP280;46804;51.786;19.520;2023-02-15T17:21:30;154529.72;;;1.52
60936;BMP280;46804;51.786;19.520;2023-02-15T17:25:38;154528.41;;;1.52
60936;BMP280;46804;51.786;19.520;2023-02-15T17:29:43;154525.88;;;1.51
60936;BMP280;46804;51.786;19.520;2023-02-15T17:33:45;154529.72;;;1.52
60936;BMP280;46804;51.786;19.520;2023-02-15T17:37:48;154527.13;;;1.51
60936;BMP280;46804;51.786;19.520;2023-02-15T17:41:49;154524.59;;;1.50
60936;BMP280;46804;51.786;19.520;2023-02-15T17:45:53;154511.84;;;1.45
60936;BMP280;46804;51.786;19.520;2023-02-15T17:49:55;154494.00;;;1.38
60936;BMP280;46804;51.786;19.520;2023-02-15T17:53:56;154495.28;;;1.39
60936;BMP280;46804;51.786;19.520;2023-02-15T17:58:18;154483.81;;;1.34
60936;BMP280;46804;51.786;19.520;2023-02-15T18:02:19;154476.19;;;1.32
60936;BMP280;46804;51.786;19.520;2023-02-15T18:06:40;154469.81;;;1.29
60936;BMP280;46804;51.786;19.520;2023-02-15T18:11:00;154467.25;;;1.28
60936;BMP280;46804;51.786;19.520;2023-02-15T18:15:20;154458.34;;;1.25
60936;BMP280;46804;51.786;19.520;2023-02-15T18:19:23;154454.53;;;1.23
60936;BMP280;46804;51.786;19.520;2023-02-15T18:23:24;154462.19;;;1.26
60936;BMP280;46804;51.786;19.520;2023-02-15T18:27:25;154462.19;;;1.26
60936;BMP280;46804;51.786;19.520;2023-02-15T18:31:26;154463.47;;;1.27
60936;BMP280;46804;51.786;19.520;2023-02-15T18:35:31;154467.25;;;1.28
60936;BMP280;46804;51.786;19.520;2023-02-15T18:39:39;154450.69;;;1.22
60936;BMP280;46804;51.786;19.520;2023-02-15T18:43:40;154450.69;;;1.22
60936;BMP280;46804;51.786;19.520;2023-02-15T18:47:41;154457.09;;;1.24
60936;BMP280;46804;51.786;19.520;2023-02-15T18:51:43;154459.63;;;1.25
60936;BMP280;46804;51.786;19.520;2023-02-15T18:55:44;154455.78;;;1.24
60936;BMP280;46804;51.786;19.520;2023-02-15T18:59:44;154463.47;;;1.27
60936;BMP280;46804;51.786;19.520;2023-02-15T19:03:47;154468.56;;;1.29
60936;BMP280;46804;51.786;19.520;2023-02-15T19:07:49;154464.72;;;1.27
60936;BMP280;46804;51.786;19.520;2023-02-15T19:11:53;154450.69;;;1.22
60936;BMP280;46804;51.786;19.520;2023-02-15T19:15:54;154445.63;;;1.20
60936;BMP280;46804;51.786;19.520;2023-02-15T19:19:55;154445.63;;;1.20
60936;BMP280;46804;51.786;19.520;2023-02-15T19:24:07;154425.22;;;1.12
60936;BMP280;46804;51.786;19.520;2023-02-15T19:28:16;154417.63;;;1.09
60936;BMP280;46804;51.786;19.520;2023-02-15T19:32:17;154409.94;;;1.06
60936;BMP280;46804;51.786;19.520;2023-02-15T19:36:18;154407.41;;;1.05
60936;BMP280;46804;51.786;19.520;2023-02-15T19:40:54;154404.84;;;1.04
60936;BMP280;46804;51.786;19.520;2023-02-15T19:44:48;154381.91;;;0.95
60936;BMP280;46804;51.786;19.520;2023-02-15T19:48:50;154379.41;;;0.94
60936;BMP280;46804;51.786;19.520;2023-02-15T19:52:51;154376.81;;;0.93
60936;BMP280;46804;51.786;19.520;2023-02-15T19:56:52;154375.56;;;0.93
60936;BMP280;46804;51.786;19.520;2023-02-15T20:00:52;154369.19;;;0.90
60936;BMP280;46804;51.786;19.520;2023-02-15T20:04:53;154355.16;;;0.85
60936;BMP280;46804;51.786;19.520;2023-02-15T20:08:54;154362.84;;;0.88
60936;BMP280;46804;51.786;19.520;2023-02-15T20:12:55;154366.69;;;0.89
60936;BMP280;46804;51.786;19.520;2023-02-15T20:16:56;154366.69;;;0.89
60936;BMP280;46804;51.786;19.520;2023-02-15T20:20:57;154366.69;;;0.89
60936;BMP280;46804;51.786;19.520;2023-02-15T20:24:58;154376.81;;;0.93
60936;BMP280;46804;51.786;19.520;2023-02-15T20:28:59;154383.19;;;0.96
60936;BMP280;46804;51.786;19.520;2023-02-15T20:32:59;154385.75;;;0.97
60936;BMP280;46804;51.786;19.520;2023-02-15T20:37:00;154385.75;;;0.97
60936;BMP280;46804;51.786;19.520;2023-02-15T20:41:01;154385.75;;;0.97
60936;BMP280;46804;51.786;19.520;2023-02-15T20:45:23;154384.50;;;0.96
60936;BMP280;46804;51.786;19.520;2023-02-15T20:49:24;154388.28;;;0.98
60936;BMP280;46804;51.786;19.520;2023-02-15T20:53:26;154379.41;;;0.94
60936;BMP280;46804;51.786;19.520;2023-02-15T20:57:27;154387.00;;;0.97
60936;BMP280;46804;51.786;19.520;2023-02-15T21:01:27;154375.56;;;0.93
60936;BMP280;46804;51.786;19.520;2023-02-15T21:05:30;154375.56;;;0.93
60936;BMP280;46804;51.786;19.520;2023-02-15T21:09:32;154366.69;;;0.89
60936;BMP280;46804;51.786;19.520;2023-02-15T21:13:33;154356.47;;;0.85
60936;BMP280;46804;51.786;19.520;2023-02-15T21:17:34;154378.13;;;0.94
60936;BMP280;46804;51.786;19.520;2023-02-15T21:21:35;154364.09;;;0.88
60936;BMP280;46804;51.786;19.520;2023-02-15T21:25:36;154353.91;;;0.84
60936;BMP280;46804;51.786;19.520;2023-02-15T21:29:37;154347.53;;;0.82
60936;BMP280;46804;51.786;19.520;2023-02-15T21:33:37;154347.53;;;0.82
60936;BMP280;46804;51.786;19.520;2023-02-15T21:37:39;154343.72;;;0.80
60936;BMP280;46804;51.786;19.520;2023-02-15T21:41:44;154341.19;;;0.79
60936;BMP280;46804;51.786;19.520;2023-02-15T21:46:15;154337.34;;;0.78
60936;BMP280;46804;51.786;19.520;2023-02-15T21:50:35;154345.03;;;0.81
60936;BMP280;46804;51.786;19.520;2023-02-15T21:54:54;154357.75;;;0.86
60936;BMP280;46804;51.786;19.520;2023-02-15T21:58:55;154361.56;;;0.87
60936;BMP280;46804;51.786;19.520;2023-02-15T22:02:57;154352.63;;;0.84
60936;BMP280;46804;51.786;19.520;2023-02-15T22:06:58;154355.16;;;0.85
60936;BMP280;46804;51.786;19.520;2023-02-15T22:10:59;154356.47;;;0.85
60936;BMP280;46804;51.786;19.520;2023-02-15T22:15:00;154346.28;;;0.81
60936;BMP280;46804;51.786;19.520;2023-02-15T22:19:01;154346.28;;;0.81
60936;BMP280;46804;51.786;19.520;2023-02-15T22:23:02;154345.03;;;0.81
60936;BMP280;46804;51.786;19.520;2023-02-15T22:27:03;154346.28;;;0.81
60936;BMP280;46804;51.786;19.520;2023-02-15T22:31:16;154350.13;;;0.83
60936;BMP280;46804;51.786;19.520;2023-02-15T22:35:21;154343.72;;;0.80
60936;BMP280;46804;51.786;19.520;2023-02-15T22:39:23;154342.44;;;0.80
60936;BMP280;46804;51.786;19.520;2023-02-15T22:43:37;154341.19;;;0.79
60936;BMP280;46804;51.786;19.520;2023-02-15T22:47:38;154348.81;;;0.82
60936;BMP280;46804;51.786;19.520;2023-02-15T22:51:39;154351.38;;;0.83
60936;BMP280;46804;51.786;19.520;2023-02-15T22:55:40;154359.00;;;0.86
60936;BMP280;46804;51.786;19.520;2023-02-15T22:59:40;154359.00;;;0.86
60936;BMP280;46804;51.786;19.520;2023-02-15T23:03:41;154353.91;;;0.84
60936;BMP280;46804;51.786;19.520;2023-02-15T23:07:42;154352.63;;;0.84
60936;BMP280;46804;51.786;19.520;2023-02-15T23:11:43;154330.97;;;0.75
60936;BMP280;46804;51.786;19.520;2023-02-15T23:15:48;154333.56;;;0.76
60936;BMP280;46804;51.786;19.520;2023-02-15T23:19:49;154327.16;;;0.74
60936;BMP280;46804;51.786;19.520;2023-02-15T23:23:52;154315.69;;;0.69
60936;BMP280;46804;51.786;19.520;2023-02-15T23:27:52;154300.44;;;0.64
60936;BMP280;46804;51.786;19.520;2023-02-15T23:31:56;154290.25;;;0.60
60936;BMP280;46804;51.786;19.520;2023-02-15T23:35:57;154271.19;;;0.52
60936;BMP280;46804;51.786;19.520;2023-02-15T23:39:58;154261.00;;;0.48
60936;BMP280;46804;51.786;19.520;2023-02-15T23:44:18;154252.06;;;0.45
60936;BMP280;46804;51.786;19.520;2023-02-15T23:48:23;154235.50;;;0.38
60936;BMP280;46804;51.786;19.520;2023-02-15T23:52:30;154235.50;;;0.38
60936;BMP280;46804;51.786;19.520;2023-02-15T23:56:30;154208.75;;;0.28
